sensor_id;sensor_type;location;lat;lon;timestamp;temperature;humidity
62916;DHT22;49010;51.230;-2.306;2022-07-23T00:01:28;17.10;76.90
62916;DHT22;49010;51.230;-2.306;2022-07-23T00:05:10;17.10;77.20
62916;DHT22;49010;51.230;-2.306;2022-07-23T00:08:52;17.00;77.60
62916;DHT22;49010;51.230;-2.306;2022-07-23T00:12:34;16.90;77.60
62916;DHT22;49010;51.230;-2.306;2022-07-23T00:16:17;16.80;77.90
62916;DHT22;49010;51.230;-2.306;2022-07-23T00:19:59;16.80;77.80
62916;DHT22;49010;51.230;-2.306;2022-07-23T00:23:41;16.70;77.80
62916;DHT22;49010;51.230;-2.306;2022-07-23T00:27:23;16.70;77.80
62916;DHT22;49010;51.230;-2.306;2022-07-23T00:31:05;16.60;77.60
62916;DHT22;49010;51.230;-2.306;2022-07-23T00:34:47;16.60;77.40
62916;DHT22;49010;51.230;-2.306;2022-07-23T00:38:28;16.50;77.90
62916;DHT22;49010;51.230;-2.306;2022-07-23T00:42:10;16.40;77.90
62916;DHT22;49010;51.230;-2.306;2022-07-23T00:45:52;16.40;77.40
62916;DHT22;49010;51.230;-2.306;2022-07-23T00:49:34;16.40;77.90
62916;DHT22;49010;51.230;-2.306;2022-07-23T00:53:16;16.30;77.80
62916;DHT22;49010;51.230;-2.306;2022-07-23T00:56:58;16.20;77.70
62916;DHT22;49010;51.230;-2.306;2022-07-23T01:00:40;16.20;77.60
62916;DHT22;49010;51.230;-2.306;2022-07-23T01:04:22;16.10;77.70
62916;DHT22;49010;51.230;-2.306;2022-07-23T01:08:05;16.00;78.20
62916;DHT22;49010;51.230;-2.306;2022-07-23T01:11:47;16.00;78.20
62916;DHT22;49010;51.230;-2.306;2022-07-23T01:15:30;15.90;78.20
62916;DHT22;49010;51.230;-2.306;2022-07-23T01:19:13;15.80;78.40
62916;DHT22;49010;51.230;-2.306;2022-07-23T01:22:55;15.80;78.60
62916;DHT22;49010;51.230;-2.306;2022-07-23T01:26:38;15.70;78.70
62916;DHT22;49010;51.230;-2.306;2022-07-23T01:30:20;15.60;78.80
62916;DHT22;49010;51.230;-2.306;2022-07-23T01:34:03;15.40;79.20
62916;DHT22;49010;51.230;-2.306;2022-07-23T01:37:45;15.30;79.70
62916;DHT22;49010;51.230;-2.306;2022-07-23T01:41:27;15.30;80.00
62916;DHT22;49010;51.230;-2.306;2022-07-23T01:45:10;15.20;80.40
62916;DHT22;49010;51.230;-2.306;2022-07-23T01:48:52;15.20;80.60
62916;DHT22;49010;51.230;-2.306;2022-07-23T01:52:34;15.10;80.60
62916;DHT22;49010;51.230;-2.306;2022-07-23T01:56:16;15.10;80.50
62916;DHT22;49010;51.230;-2.306;2022-07-23T01:59:58;15.10;80.40
62916;DHT22;49010;51.230;-2.306;2022-07-23T02:03:40;15.10;80.70
62916;DHT22;49010;51.230;-2.306;2022-07-23T02:07:21;15.10;80.60
62916;DHT22;49010;51.230;-2.306;2022-07-23T02:11:03;15.00;80.70
62916;DHT22;49010;51.230;-2.306;2022-07-23T02:14:45;15.00;80.80
62916;DHT22;49010;51.230;-2.306;2022-07-23T02:18:27;15.00;80.70
62916;DHT22;49010;51.230;-2.306;2022-07-23T02:22:09;15.00;80.70
62916;DHT22;49010;51.230;-2.306;2022-07-23T02:25:51;14.90;80.60
62916;DHT22;49010;51.230;-2.306;2022-07-23T02:29:33;14.90;81.00
62916;DHT22;49010;51.230;-2.306;2022-07-23T02:33:14;14.90;81.00
62916;DHT22;49010;51.230;-2.306;2022-07-23T02:36:56;14.80;80.80
62916;DHT22;49010;51.230;-2.306;2022-07-23T02:40:38;14.80;81.10
62916;DHT22;49010;51.230;-2.306;2022-07-23T02:44:20;14.80;81.20
62916;DHT22;49010;51.230;-2.306;2022-07-23T02:48:02;14.70;80.80
62916;DHT22;49010;51.230;-2.306;2022-07-23T02:51:44;14.60;80.80
62916;DHT22;49010;51.230;-2.306;2022-07-23T02:55:26;14.50;80.90
62916;DHT22;49010;51.230;-2.306;2022-07-23T02:59:08;14.40;81.30
62916;DHT22;49010;51.230;-2.306;2022-07-23T03:02:50;14.20;82.30
62916;DHT22;49010;51.230;-2.306;2022-07-23T03:06:31;14.10;82.00
62916;DHT22;49010;51.230;-2.306;2022-07-23T03:10:13;14.10;83.00
62916;DHT22;49010;51.230;-2.306;2022-07-23T03:13:55;14.00;82.30
62916;DHT22;49010;51.230;-2.306;2022-07-23T03:17:37;14.00;82.40
62916;DHT22;49010;51.230;-2.306;2022-07-23T03:21:19;14.00;82.40
62916;DHT22;49010;51.230;-2.306;2022-07-23T03:25:01;14.00;82.50
62916;DHT22;49010;51.230;-2.306;2022-07-23T03:28:43;13.90;82.70
62916;DHT22;49010;51.230;-2.306;2022-07-23T03:32:25;13.90;82.90
62916;DHT22;49010;51.230;-2.306;2022-07-23T03:36:08;13.80;83.20
62916;DHT22;49010;51.230;-2.306;2022-07-23T03:39:50;13.70;83.30
62916;DHT22;49010;51.230;-2.306;2022-07-23T03:43:33;13.70;83.50
62916;DHT22;49010;51.230;-2.306;2022-07-23T03:47:15;13.70;83.50
62916;DHT22;49010;51.230;-2.306;2022-07-23T03:50:58;13.70;83.80
62916;DHT22;49010;51.230;-2.306;2022-07-23T03:54:40;13.60;83.80
62916;DHT22;49010;51.230;-2.306;2022-07-23T03:58:22;13.60;83.90
62916;DHT22;49010;51.230;-2.306;2022-07-23T04:02:04;13.60;84.10
62916;DHT22;49010;51.230;-2.306;2022-07-23T04:05:46;13.50;84.30
62916;DHT22;49010;51.230;-2.306;2022-07-23T04:09:28;13.50;84.60
62916;DHT22;49010;51.230;-2.306;2022-07-23T04:13:10;13.50;84.70
62916;DHT22;49010;51.230;-2.306;2022-07-23T04:16:52;13.50;84.90
62916;DHT22;49010;51.230;-2.306;2022-07-23T04:20:33;13.50;84.70
62916;DHT22;49010;51.230;-2.306;2022-07-23T04:24:21;13.50;84.70
62916;DHT22;49010;51.230;-2.306;2022-07-23T04:28:03;13.40;84.90
62916;DHT22;49010;51.230;-2.306;2022-07-23T04:31:45;13.40;84.90
62916;DHT22;49010;51.230;-2.306;2022-07-23T04:35:27;13.40;85.10
62916;DHT22;49010;51.230;-2.306;2022-07-23T04:39:09;13.30;85.20
62916;DHT22;49010;51.230;-2.306;2022-07-23T04:42:51;13.30;85.20
62916;DHT22;49010;51.230;-2.306;2022-07-23T04:46:33;13.30;85.30
62916;DHT22;49010;51.230;-2.306;2022-07-23T04:50:15;13.30;85.60
62916;DHT22;49010;51.230;-2.306;2022-07-23T04:54:03;13.20;85.70
62916;DHT22;49010;51.230;-2.306;2022-07-23T04:57:44;13.30;86.00
62916;DHT22;49010;51.230;-2.306;2022-07-23T05:01:26;13.30;86.00
62916;DHT22;49010;51.230;-2.306;2022-07-23T05:05:08;13.30;86.20
62916;DHT22;49010;51.230;-2.306;2022-07-23T05:08:50;13.30;86.50
62916;DHT22;49010;51.230;-2.306;2022-07-23T05:12:32;13.40;86.80
62916;DHT22;49010;51.230;-2.306;2022-07-23T05:16:14;13.50;87.00
62916;DHT22;49010;51.230;-2.306;2022-07-23T05:19:56;13.50;87.00
62916;DHT22;49010;51.230;-2.306;2022-07-23T05:23:41;13.60;87.00
62916;DHT22;49010;51.230;-2.306;2022-07-23T05:27:23;13.60;86.90
62916;DHT22;49010;51.230;-2.306;2022-07-23T05:31:05;13.70;87.00
62916;DHT22;49010;51.230;-2.306;2022-07-23T05:34:47;13.80;87.10
62916;DHT22;49010;51.230;-2.306;2022-07-23T05:38:30;13.90;87.20
62916;DHT22;49010;51.230;-2.306;2022-07-23T05:42:12;14.00;87.40
62916;DHT22;49010;51.230;-2.306;2022-07-23T05:45:53;14.10;87.40
62916;DHT22;49010;51.230;-2.306;2022-07-23T05:49:37;14.20;87.50
62916;DHT22;49010;51.230;-2.306;2022-07-23T05:53:20;14.30;87.60
62916;DHT22;49010;51.230;-2.306;2022-07-23T05:57:02;14.50;87.80
62916;DHT22;49010;51.230;-2.306;2022-07-23T06:00:45;14.60;87.70
62916;DHT22;49010;51.230;-2.306;2022-07-23T06:04:27;14.70;87.50
62916;DHT22;49010;51.230;-2.306;2022-07-23T06:08:09;14.80;87.30
62916;DHT22;49010;51.230;-2.306;2022-07-23T06:11:51;15.00;87.50
62916;DHT22;49010;51.230;-2.306;2022-07-23T06:15:33;15.10;87.70
62916;DHT22;49010;51.230;-2.306;2022-07-23T06:19:15;15.30;87.60
62916;DHT22;49010;51.230;-2.306;2022-07-23T06:22:57;15.40;88.00
62916;DHT22;49010;51.230;-2.306;2022-07-23T06:26:39;15.60;87.50
62916;DHT22;49010;51.230;-2.306;2022-07-23T06:30:20;15.70;87.20
62916;DHT22;49010;51.230;-2.306;2022-07-23T06:34:05;15.80;87.00
62916;DHT22;49010;51.230;-2.306;2022-07-23T06:37:47;15.90;87.00
62916;DHT22;49010;51.230;-2.306;2022-07-23T06:41:29;16.10;86.90
62916;DHT22;49010;51.230;-2.306;2022-07-23T06:45:11;16.30;86.50
62916;DHT22;49010;51.230;-2.306;2022-07-23T06:48:53;16.50;86.20
62916;DHT22;49010;51.230;-2.306;2022-07-23T06:52:35;16.90;84.80
62916;DHT22;49010;51.230;-2.306;2022-07-23T06:56:23;17.40;83.70
62916;DHT22;49010;51.230;-2.306;2022-07-23T07:00:06;17.90;81.70
62916;DHT22;49010;51.230;-2.306;2022-07-23T07:03:48;18.30;79.60
62916;DHT22;49010;51.230;-2.306;2022-07-23T07:07:30;18.70;78.00
62916;DHT22;49010;51.230;-2.306;2022-07-23T07:11:12;19.10;75.80
62916;DHT22;49010;51.230;-2.306;2022-07-23T07:14:54;19.70;74.10
62916;DHT22;49010;51.230;-2.306;2022-07-23T07:18:36;20.10;71.60
62916;DHT22;49010;51.230;-2.306;2022-07-23T07:22:18;20.60;70.90
62916;DHT22;49010;51.230;-2.306;2022-07-23T07:26:00;20.90;69.30
62916;DHT22;49010;51.230;-2.306;2022-07-23T07:29:42;21.20;68.20
62916;DHT22;49010;51.230;-2.306;2022-07-23T07:33:23;21.50;67.00
62916;DHT22;49010;51.230;-2.306;2022-07-23T07:37:05;21.80;66.30
62916;DHT22;49010;51.230;-2.306;2022-07-23T07:40:47;22.00;65.40
62916;DHT22;49010;51.230;-2.306;2022-07-23T07:44:30;22.30;65.30
62916;DHT22;49010;51.230;-2.306;2022-07-23T07:48:12;22.70;64.30
62916;DHT22;49010;51.230;-2.306;2022-07-23T07:51:53;23.10;62.80
62916;DHT22;49010;51.230;-2.306;2022-07-23T07:55:35;23.20;61.70
62916;DHT22;49010;51.230;-2.306;2022-07-23T07:59:18;23.10;62.70
62916;DHT22;49010;51.230;-2.306;2022-07-23T08:03:00;23.00;62.70
62916;DHT22;49010;51.230;-2.306;2022-07-23T08:06:44;23.10;61.90
62916;DHT22;49010;51.230;-2.306;2022-07-23T08:10:27;23.30;61.20
62916;DHT22;49010;51.230;-2.306;2022-07-23T08:14:09;23.70;60.00
62916;DHT22;49010;51.230;-2.306;2022-07-23T08:17:53;24.00;58.70
62916;DHT22;49010;51.230;-2.306;2022-07-23T08:21:35;24.00;59.10
62916;DHT22;49010;51.230;-2.306;2022-07-23T08:25:21;23.80;59.50
62916;DHT22;49010;51.230;-2.306;2022-07-23T08:29:03;23.60;60.60
62916;DHT22;49010;51.230;-2.306;2022-07-23T08:36:30;22.90;63.30
62916;DHT22;49010;51.230;-2.306;2022-07-23T08:40:13;22.70;62.30
62916;DHT22;49010;51.230;-2.306;2022-07-23T08:43:55;22.60;64.10
62916;DHT22;49010;51.230;-2.306;2022-07-23T08:47:38;22.60;63.70
62916;DHT22;49010;51.230;-2.306;2022-07-23T08:51:25;22.90;63.70
62916;DHT22;49010;51.230;-2.306;2022-07-23T08:55:09;23.10;62.50
62916;DHT22;49010;51.230;-2.306;2022-07-23T08:58:53;23.20;62.30
62916;DHT22;49010;51.230;-2.306;2022-07-23T09:02:40;23.30;62.00
62916;DHT22;49010;51.230;-2.306;2022-07-23T09:06:23;23.40;62.60
62916;DHT22;49010;51.230;-2.306;2022-07-23T09:10:10;23.50;61.70
62916;DHT22;49010;51.230;-2.306;2022-07-23T09:13:54;23.70;60.00
62916;DHT22;49010;51.230;-2.306;2022-07-23T09:17:42;23.60;61.00
62916;DHT22;49010;51.230;-2.306;2022-07-23T09:21:29;23.70;61.50
62916;DHT22;49010;51.230;-2.306;2022-07-23T09:25:15;23.70;60.60
62916;DHT22;49010;51.230;-2.306;2022-07-23T09:28:59;23.80;59.50
62916;DHT22;49010;51.230;-2.306;2022-07-23T09:32:42;23.90;60.30
62916;DHT22;49010;51.230;-2.306;2022-07-23T09:36:28;24.00;60.50
62916;DHT22;49010;51.230;-2.306;2022-07-23T09:40:11;24.00;59.30
62916;DHT22;49010;51.230;-2.306;2022-07-23T09:43:55;24.10;60.30
62916;DHT22;49010;51.230;-2.306;2022-07-23T09:47:37;24.10;59.60
62916;DHT22;49010;51.230;-2.306;2022-07-23T09:51:20;24.10;59.50
62916;DHT22;49010;51.230;-2.306;2022-07-23T09:55:31;24.10;59.70
62916;DHT22;49010;51.230;-2.306;2022-07-23T09:59:26;24.10;61.20
62916;DHT22;49010;51.230;-2.306;2022-07-23T10:03:09;24.10;61.10
62916;DHT22;49010;51.230;-2.306;2022-07-23T10:06:57;24.20;60.80
62916;DHT22;49010;51.230;-2.306;2022-07-23T10:10:40;24.30;59.70
62916;DHT22;49010;51.230;-2.306;2022-07-23T10:14:22;24.40;61.30
62916;DHT22;49010;51.230;-2.306;2022-07-23T10:18:05;24.60;60.90
62916;DHT22;49010;51.230;-2.306;2022-07-23T10:21:54;24.80;58.90
62916;DHT22;49010;51.230;-2.306;2022-07-23T10:25:45;24.90;59.00
62916;DHT22;49010;51.230;-2.306;2022-07-23T10:29:42;24.90;58.80
62916;DHT22;49010;51.230;-2.306;2022-07-23T10:37:28;24.70;59.40
62916;DHT22;49010;51.230;-2.306;2022-07-23T10:41:14;24.50;60.20
62916;DHT22;49010;51.230;-2.306;2022-07-23T10:44:55;24.40;60.30
62916;DHT22;49010;51.230;-2.306;2022-07-23T10:48:38;24.30;60.10
62916;DHT22;49010;51.230;-2.306;2022-07-23T10:52:23;24.20;60.60
62916;DHT22;49010;51.230;-2.306;2022-07-23T10:56:05;24.20;61.10
62916;DHT22;49010;51.230;-2.306;2022-07-23T11:03:56;24.10;61.20
62916;DHT22;49010;51.230;-2.306;2022-07-23T11:11:46;24.10;61.70
62916;DHT22;49010;51.230;-2.306;2022-07-23T11:15:28;24.10;61.40
62916;DHT22;49010;51.230;-2.306;2022-07-23T11:19:09;24.10;61.50
62916;DHT22;49010;51.230;-2.306;2022-07-23T11:22:56;24.00;61.50
62916;DHT22;49010;51.230;-2.306;2022-07-23T11:26:46;23.90;61.50
62916;DHT22;49010;51.230;-2.306;2022-07-23T11:34:35;23.90;62.50
62916;DHT22;49010;51.230;-2.306;2022-07-23T11:38:21;24.00;62.60
62916;DHT22;49010;51.230;-2.306;2022-07-23T11:42:04;24.20;62.00
62916;DHT22;49010;51.230;-2.306;2022-07-23T11:45:52;24.70;62.60
62916;DHT22;49010;51.230;-2.306;2022-07-23T11:49:34;25.20;59.50
62916;DHT22;49010;51.230;-2.306;2022-07-23T11:53:27;25.50;58.70
62916;DHT22;49010;51.230;-2.306;2022-07-23T11:57:10;25.60;58.60
62916;DHT22;49010;51.230;-2.306;2022-07-23T12:00:55;25.80;58.40
62916;DHT22;49010;51.230;-2.306;2022-07-23T12:04:55;26.30;56.20
62916;DHT22;49010;51.230;-2.306;2022-07-23T12:08:41;26.50;57.40
62916;DHT22;49010;51.230;-2.306;2022-07-23T12:12:23;26.50;56.20
62916;DHT22;49010;51.230;-2.306;2022-07-23T12:16:06;26.50;55.90
62916;DHT22;49010;51.230;-2.306;2022-07-23T12:19:49;26.60;55.50
62916;DHT22;49010;51.230;-2.306;2022-07-23T12:23:31;26.70;56.20
62916;DHT22;49010;51.230;-2.306;2022-07-23T12:27:13;27.00;56.30
62916;DHT22;49010;51.230;-2.306;2022-07-23T12:30:56;27.30;55.00
62916;DHT22;49010;51.230;-2.306;2022-07-23T12:34:39;27.60;55.50
62916;DHT22;49010;51.230;-2.306;2022-07-23T12:38:22;28.00;53.30
62916;DHT22;49010;51.230;-2.306;2022-07-23T12:42:42;28.30;52.80
62916;DHT22;49010;51.230;-2.306;2022-07-23T12:46:24;28.10;53.40
62916;DHT22;49010;51.230;-2.306;2022-07-23T12:50:06;27.70;53.10
62916;DHT22;49010;51.230;-2.306;2022-07-23T12:53:53;27.30;54.40
62916;DHT22;49010;51.230;-2.306;2022-07-23T12:57:45;27.20;55.30
62916;DHT22;49010;51.230;-2.306;2022-07-23T13:01:31;26.90;55.20
62916;DHT22;49010;51.230;-2.306;2022-07-23T13:05:14;26.80;56.00
62916;DHT22;49010;51.230;-2.306;2022-07-23T13:08:57;26.60;55.50
62916;DHT22;49010;51.230;-2.306;2022-07-23T13:12:39;26.40;56.20
62916;DHT22;49010;51.230;-2.306;2022-07-23T13:16:21;26.20;56.90
62916;DHT22;49010;51.230;-2.306;2022-07-23T13:25:07;26.90;56.80
62916;DHT22;49010;51.230;-2.306;2022-07-23T13:28:50;27.30;54.70
62916;DHT22;49010;51.230;-2.306;2022-07-23T13:32:32;27.20;54.40
62916;DHT22;49010;51.230;-2.306;2022-07-23T13:36:14;27.00;55.00
62916;DHT22;49010;51.230;-2.306;2022-07-23T13:39:56;26.70;55.60
62916;DHT22;49010;51.230;-2.306;2022-07-23T13:43:38;26.50;56.10
62916;DHT22;49010;51.230;-2.306;2022-07-23T13:47:21;26.20;56.70
62916;DHT22;49010;51.230;-2.306;2022-07-23T13:51:07;25.90;57.60
62916;DHT22;49010;51.230;-2.306;2022-07-23T13:54:51;25.90;57.80
62916;DHT22;49010;51.230;-2.306;2022-07-23T13:58:34;26.20;57.00
62916;DHT22;49010;51.230;-2.306;2022-07-23T14:02:17;26.40;57.00
62916;DHT22;49010;51.230;-2.306;2022-07-23T14:06:05;26.40;56.80
62916;DHT22;49010;51.230;-2.306;2022-07-23T14:09:56;26.30;57.90
62916;DHT22;49010;51.230;-2.306;2022-07-23T14:13:38;26.40;56.50
62916;DHT22;49010;51.230;-2.306;2022-07-23T14:17:22;26.30;56.50
62916;DHT22;49010;51.230;-2.306;2022-07-23T14:21:07;26.20;57.00
62916;DHT22;49010;51.230;-2.306;2022-07-23T14:24:50;26.10;56.90
62916;DHT22;49010;51.230;-2.306;2022-07-23T14:28:35;26.00;57.60
62916;DHT22;49010;51.230;-2.306;2022-07-23T14:32:17;26.10;58.10
62916;DHT22;49010;51.230;-2.306;2022-07-23T14:35:59;26.10;57.40
62916;DHT22;49010;51.230;-2.306;2022-07-23T14:39:42;26.20;57.00
62916;DHT22;49010;51.230;-2.306;2022-07-23T14:43:26;26.30;57.30
62916;DHT22;49010;51.230;-2.306;2022-07-23T14:47:10;26.20;57.30
62916;DHT22;49010;51.230;-2.306;2022-07-23T14:50:52;26.00;58.00
62916;DHT22;49010;51.230;-2.306;2022-07-23T14:54:34;25.90;57.10
62916;DHT22;49010;51.230;-2.306;2022-07-23T14:58:16;25.90;57.70
62916;DHT22;49010;51.230;-2.306;2022-07-23T15:01:59;25.80;57.90
62916;DHT22;49010;51.230;-2.306;2022-07-23T15:05:41;25.70;58.10
62916;DHT22;49010;51.230;-2.306;2022-07-23T15:09:23;25.80;58.50
62916;DHT22;49010;51.230;-2.306;2022-07-23T15:13:05;26.10;57.70
62916;DHT22;49010;51.230;-2.306;2022-07-23T15:16:49;26.20;57.00
62916;DHT22;49010;51.230;-2.306;2022-07-23T15:20:33;26.30;56.50
62916;DHT22;49010;51.230;-2.306;2022-07-23T15:24:21;26.30;56.40
62916;DHT22;49010;51.230;-2.306;2022-07-23T15:28:08;26.40;56.10
62916;DHT22;49010;51.230;-2.306;2022-07-23T15:32:02;26.40;55.60
62916;DHT22;49010;51.230;-2.306;2022-07-23T15:35:44;26.40;56.40
62916;DHT22;49010;51.230;-2.306;2022-07-23T15:39:26;26.50;55.20
62916;DHT22;49010;51.230;-2.306;2022-07-23T15:43:10;26.50;55.30
62916;DHT22;49010;51.230;-2.306;2022-07-23T15:46:52;26.40;55.50
62916;DHT22;49010;51.230;-2.306;2022-07-23T15:50:34;26.30;55.20
62916;DHT22;49010;51.230;-2.306;2022-07-23T15:54:17;26.10;56.10
62916;DHT22;49010;51.230;-2.306;2022-07-23T15:57:58;26.10;55.90
62916;DHT22;49010;51.230;-2.306;2022-07-23T16:01:40;26.10;56.70
62916;DHT22;49010;51.230;-2.306;2022-07-23T16:05:22;26.10;56.20
62916;DHT22;49010;51.230;-2.306;2022-07-23T16:09:06;26.10;56.80
62916;DHT22;49010;51.230;-2.306;2022-07-23T16:12:59;26.20;56.70
62916;DHT22;49010;51.230;-2.306;2022-07-23T16:16:42;26.40;55.70
62916;DHT22;49010;51.230;-2.306;2022-07-23T16:20:24;26.50;56.10
62916;DHT22;49010;51.230;-2.306;2022-07-23T16:24:06;26.50;55.70
62916;DHT22;49010;51.230;-2.306;2022-07-23T16:27:48;26.60;56.20
62916;DHT22;49010;51.230;-2.306;2022-07-23T16:31:30;26.60;54.80
62916;DHT22;49010;51.230;-2.306;2022-07-23T16:35:13;26.50;55.80
62916;DHT22;49010;51.230;-2.306;2022-07-23T16:38:55;26.50;55.20
62916;DHT22;49010;51.230;-2.306;2022-07-23T16:42:37;26.30;55.50
62916;DHT22;49010;51.230;-2.306;2022-07-23T16:46:19;26.00;56.80
62916;DHT22;49010;51.230;-2.306;2022-07-23T16:50:03;25.90;56.90
62916;DHT22;49010;51.230;-2.306;2022-07-23T16:53:49;25.80;56.40
62916;DHT22;49010;51.230;-2.306;2022-07-23T16:57:31;25.80;56.80
62916;DHT22;49010;51.230;-2.306;2022-07-23T17:01:13;25.70;57.20
62916;DHT22;49010;51.230;-2.306;2022-07-23T17:04:55;25.50;56.70
62916;DHT22;49010;51.230;-2.306;2022-07-23T17:08:37;25.40;57.80
62916;DHT22;49010;51.230;-2.306;2022-07-23T17:12:19;25.40;57.80
62916;DHT22;49010;51.230;-2.306;2022-07-23T17:16:01;25.30;57.50
62916;DHT22;49010;51.230;-2.306;2022-07-23T17:19:43;25.30;57.20
62916;DHT22;49010;51.230;-2.306;2022-07-23T17:23:25;25.30;57.60
62916;DHT22;49010;51.230;-2.306;2022-07-23T17:27:07;25.10;58.10
62916;DHT22;49010;51.230;-2.306;2022-07-23T17:30:49;25.00;59.00
62916;DHT22;49010;51.230;-2.306;2022-07-23T17:34:31;24.90;59.30
62916;DHT22;49010;51.230;-2.306;2022-07-23T17:38:13;24.80;59.60
62916;DHT22;49010;51.230;-2.306;2022-07-23T17:41:54;24.70;60.30
62916;DHT22;49010;51.230;-2.306;2022-07-23T17:45:36;24.70;60.20
62916;DHT22;49010;51.230;-2.306;2022-07-23T17:49:18;24.50;60.60
62916;DHT22;49010;51.230;-2.306;2022-07-23T17:53:00;24.40;61.20
62916;DHT22;49010;51.230;-2.306;2022-07-23T17:56:42;24.30;61.50
62916;DHT22;49010;51.230;-2.306;2022-07-23T18:00:28;24.20;61.60
62916;DHT22;49010;51.230;-2.306;2022-07-23T18:04:10;24.10;62.10
62916;DHT22;49010;51.230;-2.306;2022-07-23T18:07:55;24.00;62.50
62916;DHT22;49010;51.230;-2.306;2022-07-23T18:11:39;23.90;63.00
62916;DHT22;49010;51.230;-2.306;2022-07-23T18:15:21;23.90;63.40
62916;DHT22;49010;51.230;-2.306;2022-07-23T18:19:04;23.90;62.90
62916;DHT22;49010;51.230;-2.306;2022-07-23T18:22:47;23.80;63.00
62916;DHT22;49010;51.230;-2.306;2022-07-23T18:26:30;23.80;63.30
62916;DHT22;49010;51.230;-2.306;2022-07-23T18:30:12;23.60;63.70
62916;DHT22;49010;51.230;-2.306;2022-07-23T18:33:54;23.60;64.00
62916;DHT22;49010;51.230;-2.306;2022-07-23T18:37:37;23.50;64.20
62916;DHT22;49010;51.230;-2.306;2022-07-23T18:41:19;23.50;64.70
62916;DHT22;49010;51.230;-2.306;2022-07-23T18:45:02;23.40;65.00
62916;DHT22;49010;51.230;-2.306;2022-07-23T18:48:48;23.40;65.30
62916;DHT22;49010;51.230;-2.306;2022-07-23T18:52:31;23.40;65.50
62916;DHT22;49010;51.230;-2.306;2022-07-23T18:56:13;23.30;65.20
62916;DHT22;49010;51.230;-2.306;2022-07-23T18:59:55;23.30;65.80
62916;DHT22;49010;51.230;-2.306;2022-07-23T19:03:37;23.20;65.80
62916;DHT22;49010;51.230;-2.306;2022-07-23T19:07:19;23.20;66.10
62916;DHT22;49010;51.230;-2.306;2022-07-23T19:11:01;23.10;66.20
62916;DHT22;49010;51.230;-2.306;2022-07-23T19:14:43;23.00;66.50
62916;DHT22;49010;51.230;-2.306;2022-07-23T19:18:25;23.00;66.70
62916;DHT22;49010;51.230;-2.306;2022-07-23T19:22:07;22.80;67.20
62916;DHT22;49010;51.230;-2.306;2022-07-23T19:25:51;22.70;67.30
62916;DHT22;49010;51.230;-2.306;2022-07-23T19:29:34;22.60;68.00
62916;DHT22;49010;51.230;-2.306;2022-07-23T19:33:17;22.50;68.40
62916;DHT22;49010;51.230;-2.306;2022-07-23T19:36:59;22.50;68.80
62916;DHT22;49010;51.230;-2.306;2022-07-23T19:40:42;22.40;69.10
62916;DHT22;49010;51.230;-2.306;2022-07-23T19:44:24;22.50;69.00
62916;DHT22;49010;51.230;-2.306;2022-07-23T19:48:08;22.40;69.10
62916;DHT22;49010;51.230;-2.306;2022-07-23T19:51:50;22.30;69.30
62916;DHT22;49010;51.230;-2.306;2022-07-23T19:55:31;22.30;69.40
62916;DHT22;49010;51.230;-2.306;2022-07-23T19:59:14;22.20;69.80
62916;DHT22;49010;51.230;-2.306;2022-07-23T20:02:56;22.10;70.20
62916;DHT22;49010;51.230;-2.306;2022-07-23T20:06:38;22.10;70.30
62916;DHT22;49010;51.230;-2.306;2022-07-23T20:10:20;22.00;70.40
62916;DHT22;49010;51.230;-2.306;2022-07-23T20:14:02;21.90;70.60
62916;DHT22;49010;51.230;-2.306;2022-07-23T20:17:44;21.90;70.80
62916;DHT22;49010;51.230;-2.306;2022-07-23T20:21:26;21.90;71.00
62916;DHT22;49010;51.230;-2.306;2022-07-23T20:25:08;21.80;71.20
62916;DHT22;49010;51.230;-2.306;2022-07-23T20:28:52;21.80;71.50
62916;DHT22;49010;51.230;-2.306;2022-07-23T20:32:34;21.80;71.70
62916;DHT22;49010;51.230;-2.306;2022-07-23T20:36:16;21.70;72.00
62916;DHT22;49010;51.230;-2.306;2022-07-23T20:39:58;21.70;72.00
62916;DHT22;49010;51.230;-2.306;2022-07-23T20:43:40;21.70;72.10
62916;DHT22;49010;51.230;-2.306;2022-07-23T20:47:24;21.70;72.20
62916;DHT22;49010;51.230;-2.306;2022-07-23T20:51:06;21.70;72.20
62916;DHT22;49010;51.230;-2.306;2022-07-23T20:54:48;21.70;72.50
62916;DHT22;49010;51.230;-2.306;2022-07-23T20:58:30;21.60;72.80
62916;DHT22;49010;51.230;-2.306;2022-07-23T21:02:12;21.60;72.80
62916;DHT22;49010;51.230;-2.306;2022-07-23T21:05:54;21.60;73.10
62916;DHT22;49010;51.230;-2.306;2022-07-23T21:09:36;21.50;73.40
62916;DHT22;49010;51.230;-2.306;2022-07-23T21:13:18;21.40;73.90
62916;DHT22;49010;51.230;-2.306;2022-07-23T21:17:00;21.30;74.10
62916;DHT22;49010;51.230;-2.306;2022-07-23T21:20:42;21.30;74.10
62916;DHT22;49010;51.230;-2.306;2022-07-23T21:24:43;21.30;74.10
62916;DHT22;49010;51.230;-2.306;2022-07-23T21:28:25;21.20;74.10
62916;DHT22;49010;51.230;-2.306;2022-07-23T21:32:07;21.20;74.50
62916;DHT22;49010;51.230;-2.306;2022-07-23T21:35:49;21.10;74.70
62916;DHT22;49010;51.230;-2.306;2022-07-23T21:39:31;21.10;74.80
62916;DHT22;49010;51.230;-2.306;2022-07-23T21:43:13;21.10;75.00
62916;DHT22;49010;51.230;-2.306;2022-07-23T21:46:56;21.10;75.10
62916;DHT22;49010;51.230;-2.306;2022-07-23T21:50:38;21.00;75.20
62916;DHT22;49010;51.230;-2.306;2022-07-23T21:54:20;21.00;75.40
62916;DHT22;49010;51.230;-2.306;2022-07-23T21:58:02;20.90;75.70
62916;DHT22;49010;51.230;-2.306;2022-07-23T22:01:44;20.90;75.90
62916;DHT22;49010;51.230;-2.306;2022-07-23T22:05:26;20.90;76.30
62916;DHT22;49010;51.230;-2.306;2022-07-23T22:09:08;20.90;76.40
62916;DHT22;49010;51.230;-2.306;2022-07-23T22:12:53;20.90;76.40
62916;DHT22;49010;51.230;-2.306;2022-07-23T22:16:35;20.90;76.50
62916;DHT22;49010;51.230;-2.306;2022-07-23T22:20:18;20.90;76.80
62916;DHT22;49010;51.230;-2.306;2022-07-23T22:24:00;20.80;76.80
62916;DHT22;49010;51.230;-2.306;2022-07-23T22:27:43;20.80;77.00
62916;DHT22;49010;51.230;-2.306;2022-07-23T22:31:25;20.80;76.60
62916;DHT22;49010;51.230;-2.306;2022-07-23T22:35:07;20.80;76.90
62916;DHT22;49010;51.230;-2.306;2022-07-23T22:38:49;20.80;76.90
62916;DHT22;49010;51.230;-2.306;2022-07-23T22:42:31;20.70;77.00
62916;DHT22;49010;51.230;-2.306;2022-07-23T22:46:14;20.70;77.00
62916;DHT22;49010;51.230;-2.306;2022-07-23T22:49:56;20.60;77.00
62916;DHT22;49010;51.230;-2.306;2022-07-23T22:53:38;20.60;76.80
62916;DHT22;49010;51.230;-2.306;2022-07-23T22:57:20;20.60;76.80
62916;DHT22;49010;51.230;-2.306;2022-07-23T23:01:01;20.60;76.60
62916;DHT22;49010;51.230;-2.306;2022-07-23T23:04:43;20.60;76.40
62916;DHT22;49010;51.230;-2.306;2022-07-23T23:08:25;20.60;76.60
62916;DHT22;49010;51.230;-2.306;2022-07-23T23:12:08;20.60;76.60
62916;DHT22;49010;51.230;-2.306;2022-07-23T23:15:50;20.60;76.30
62916;DHT22;49010;51.230;-2.306;2022-07-23T23:19:32;20.60;76.30
62916;DHT22;49010;51.230;-2.306;2022-07-23T23:23:13;20.60;76.10
62916;DHT22;49010;51.230;-2.306;2022-07-23T23:26:55;20.50;76.40
62916;DHT22;49010;51.230;-2.306;2022-07-23T23:30:37;20.50;76.40